createdAt,value
2018-06-17T00:00:08.997Z,132.18
2018-06-17T00:02:40.112Z,129.60
2018-06-17T00:05:11.269Z,132.05
2018-06-17T00:07:42.488Z,132.70
2018-06-17T00:10:13.478Z,133.40
2018-06-17T00:12:44.945Z,137.12
2018-06-17T00:15:15.934Z,138.68
2018-06-17T00:17:47.724Z,137.57
2018-06-17T00:20:18.813Z,135.05
2018-06-17T00:22:50.126Z,138.45
2018-06-17T00:25:21.074Z,137.10
2018-06-17T00:27:52.182Z,140.15
2018-06-17T00:30:23.250Z,133.93
2018-06-17T00:32:54.353Z,132.75
2018-06-17T00:35:25.714Z,132.50
2018-06-17T00:37:57.098Z,133.80
2018-06-17T00:40:28.084Z,129.32
2018-06-17T00:42:59.071Z,132.22
2018-06-17T00:45:30.062Z,125.95
2018-06-17T00:48:01.936Z,127.35
2018-06-17T00:50:33.000Z,132.78
2018-06-17T00:53:04.103Z,130.35
2018-06-17T00:55:35.369Z,137.22
2018-06-17T00:58:06.893Z,127.92
2018-06-17T01:00:37.919Z,134.70
2018-06-17T01:03:09.031Z,129.65
2018-06-17T01:05:40.861Z,129.63
2018-06-17T01:08:12.080Z,129.75
2018-06-17T01:10:43.137Z,127.38
2018-06-17T01:13:14.174Z,131.75
2018-06-17T01:15:45.084Z,134.57
2018-06-17T01:18:17.522Z,137.43
2018-06-17T01:20:49.319Z,134.97
2018-06-17T01:23:21.318Z,129.70
2018-06-17T01:25:52.283Z,132.40
2018-06-17T01:28:23.369Z,132.90
2018-06-17T01:30:54.351Z,133.55
2018-06-17T01:33:25.401Z,134.43
2018-06-17T01:35:58.224Z,136.97
2018-06-17T01:38:29.411Z,134.20
2018-06-17T01:41:00.737Z,133.27
2018-06-17T01:43:39.936Z,124.55
2018-06-17T01:46:13.041Z,130.85
2018-06-17T01:48:44.003Z,131.57
2018-06-17T01:51:15.151Z,130.47
2018-06-17T01:53:46.455Z,131.57
2018-06-17T01:56:17.437Z,129.00
2018-06-17T01:58:48.496Z,129.10
2018-06-17T02:01:19.505Z,129.95
2018-06-17T02:03:55.655Z,129.20
2018-06-17T02:06:31.854Z,132.72
2018-06-17T02:09:08.202Z,131.90
2018-06-17T02:11:41.654Z,132.85
2018-06-17T02:14:17.604Z,130.18
2018-06-17T02:16:55.245Z,134.80
2018-06-17T02:19:28.061Z,131.40
2018-06-17T02:21:59.736Z,126.90
2018-06-17T02:24:30.809Z,126.12
2018-06-17T02:27:01.916Z,135.63
2018-06-17T02:29:32.895Z,130.27
2018-06-17T02:32:04.150Z,125.10
2018-06-17T02:34:35.104Z,127.80
2018-06-17T02:37:06.694Z,130.82
2018-06-17T02:39:37.910Z,132.97
2018-06-17T02:42:09.777Z,135.22
2018-06-17T02:44:40.773Z,126.25
2018-06-17T02:47:16.910Z,136.07
2018-06-17T02:49:49.409Z,136.37
2018-06-17T02:52:25.553Z,135.45
2018-06-17T02:54:56.903Z,134.95
2018-06-17T02:57:27.937Z,132.03
2018-06-17T02:59:59.111Z,132.93
2018-06-17T03:02:30.256Z,141.82
2018-06-17T03:05:01.398Z,131.45
2018-06-17T03:07:32.539Z,129.63
2018-06-17T03:10:03.651Z,128.27
2018-06-17T03:12:34.773Z,126.10
2018-06-17T03:15:05.768Z,132.10
2018-06-17T03:17:36.906Z,132.30
2018-06-17T03:20:07.877Z,126.87
2018-06-17T03:22:39.062Z,129.78
2018-06-17T03:25:15.130Z,130.32
2018-06-17T03:27:51.359Z,130.55
2018-06-17T03:30:27.329Z,130.45
2018-06-17T03:33:03.315Z,128.85
2018-06-17T03:35:39.364Z,129.35
2018-06-17T03:38:10.484Z,134.07
2018-06-17T03:40:41.541Z,130.85
2018-06-17T03:43:12.520Z,159.65
2018-06-17T03:45:43.540Z,138.28
2018-06-17T03:48:14.615Z,135.88
2018-06-17T03:50:45.655Z,133.67
2018-06-17T03:53:16.732Z,130.47
2018-06-17T03:55:47.985Z,122.98
2018-06-17T03:58:19.097Z,127.07
2018-06-17T04:00:50.202Z,127.70
2018-06-17T04:03:21.365Z,133.07
2018-06-17T04:05:52.645Z,133.50
2018-06-17T04:08:23.784Z,135.40
2018-06-17T04:10:54.922Z,130.60
2018-06-17T04:13:26.050Z,131.87
2018-06-17T04:15:57.207Z,130.47
2018-06-17T04:18:28.289Z,135.05
2018-06-17T04:20:59.330Z,138.00
2018-06-17T04:23:30.941Z,132.85
2018-06-17T04:26:02.596Z,129.55
2018-06-17T04:28:33.941Z,128.93
2018-06-17T04:31:05.247Z,134.57
2018-06-17T04:33:36.346Z,126.80
2018-06-17T04:36:07.488Z,128.57
2018-06-17T04:38:38.628Z,135.40
2018-06-17T04:41:09.709Z,132.87
2018-06-17T04:43:40.822Z,131.40
2018-06-17T04:46:12.125Z,131.95
2018-06-17T04:48:43.233Z,136.12
2018-06-17T04:51:14.324Z,133.72
2018-06-17T04:53:46.008Z,131.12
2018-06-17T04:56:17.212Z,136.03
2018-06-17T04:58:48.255Z,132.37
2018-06-17T05:01:19.398Z,131.63
2018-06-17T05:03:50.452Z,137.03
2018-06-17T05:06:21.615Z,138.15
2018-06-17T05:08:52.627Z,137.05
2018-06-17T05:11:23.715Z,133.93
2018-06-17T05:13:54.845Z,133.63
2018-06-17T05:16:26.047Z,135.05
2018-06-17T05:18:57.060Z,135.07
2018-06-17T05:21:28.102Z,135.70
2018-06-17T05:23:59.229Z,139.30
2018-06-17T05:26:30.333Z,139.70
2018-06-17T05:29:01.403Z,138.97
2018-06-17T05:31:32.549Z,139.05
2018-06-17T05:34:03.601Z,134.15
2018-06-17T05:36:35.117Z,143.57
2018-06-17T05:39:09.982Z,138.50
2018-06-17T05:41:41.117Z,139.72
2018-06-17T05:44:12.235Z,133.10
2018-06-17T05:46:43.309Z,136.03
2018-06-17T05:49:14.427Z,138.15
2018-06-17T05:51:45.539Z,138.07
2018-06-17T05:54:16.769Z,131.35
2018-06-17T05:56:47.841Z,136.85
2018-06-17T05:59:18.885Z,136.43
2018-06-17T06:01:49.970Z,136.12
2018-06-17T06:04:21.034Z,141.30
2018-06-17T06:06:52.132Z,143.95
2018-06-17T06:09:23.253Z,135.97
2018-06-17T06:11:54.389Z,135.80
2018-06-17T06:14:25.565Z,144.13
2018-06-17T06:16:56.812Z,139.62
2018-06-17T06:19:27.995Z,142.87
2018-06-17T06:21:59.060Z,144.43
2018-06-17T06:24:30.483Z,142.10
2018-06-17T06:27:01.535Z,143.78
2018-06-17T06:29:32.921Z,144.97
2018-06-17T06:32:04.046Z,141.32
2018-06-17T06:34:35.191Z,139.72
2018-06-17T06:37:06.190Z,135.95
2018-06-17T06:39:37.328Z,136.92
2018-06-17T06:42:08.440Z,139.97
2018-06-17T06:44:40.873Z,138.75
2018-06-17T06:47:11.929Z,141.03
2018-06-17T06:49:42.892Z,135.10
2018-06-17T06:52:14.835Z,133.47
2018-06-17T06:54:45.857Z,138.10
2018-06-17T06:57:16.913Z,138.30
2018-06-17T06:59:47.906Z,139.20
2018-06-17T07:02:29.591Z,138.18
2018-06-17T07:05:11.399Z,133.25
2018-06-17T07:08:56.720Z,135.55
2018-06-17T07:11:28.121Z,133.40
2018-06-17T07:13:59.192Z,133.35
2018-06-17T07:16:40.835Z,137.68
2018-06-17T07:19:11.945Z,138.88
2018-06-17T07:21:43.436Z,137.55
2018-06-17T07:24:14.249Z,132.93
2018-06-17T07:26:56.789Z,132.67
2018-06-17T07:29:39.746Z,139.30
2018-06-17T07:32:10.400Z,137.15
2018-06-17T07:34:41.077Z,134.05
2018-06-17T07:37:11.913Z,138.52
2018-06-17T07:41:05.973Z,136.95
2018-06-17T07:43:38.736Z,137.07
2018-06-17T07:46:09.462Z,140.88
2018-06-17T07:49:49.688Z,139.60
2018-06-17T07:52:32.369Z,132.90
2018-06-17T07:55:04.299Z,140.12
2018-06-17T07:57:35.762Z,135.52
2018-06-17T08:00:06.309Z,132.03
2018-06-17T08:02:36.958Z,131.87
2018-06-17T08:05:07.718Z,134.52
2018-06-17T08:07:38.577Z,137.62
2018-06-17T08:10:09.653Z,137.90
2018-06-17T08:12:40.405Z,132.72
2018-06-17T08:15:11.154Z,133.75
2018-06-17T08:17:42.238Z,138.97
2018-06-17T08:20:13.199Z,137.18
2018-06-17T08:22:43.737Z,137.18
2018-06-17T08:25:14.510Z,135.28
2018-06-17T08:27:45.226Z,136.68
2018-06-17T08:30:16.066Z,134.00
2018-06-17T08:32:46.970Z,137.62
2018-06-17T08:35:17.906Z,135.82
2018-06-17T08:37:48.806Z,142.10
2018-06-17T08:40:19.700Z,136.18
2018-06-17T08:42:50.948Z,134.20
2018-06-17T08:45:21.947Z,135.05
2018-06-17T08:47:56.839Z,135.78
2018-06-17T08:50:28.299Z,137.47
2018-06-17T08:52:59.538Z,133.65
2018-06-17T08:55:30.479Z,138.75
2018-06-17T08:58:01.314Z,136.65
2018-06-17T09:00:32.192Z,138.03
2018-06-17T09:03:03.763Z,137.50
2018-06-17T09:05:34.471Z,136.32
2018-06-17T09:08:05.061Z,138.03
2018-06-17T09:10:36.416Z,136.80
2018-06-17T09:13:07.132Z,132.63
2018-06-17T09:15:37.958Z,133.97
2018-06-17T09:18:08.704Z,138.95
2018-06-17T09:20:39.545Z,135.63
2018-06-17T09:23:10.456Z,132.63
2018-06-17T09:25:41.349Z,139.30
2018-06-17T09:28:12.156Z,137.52
2018-06-17T09:30:43.040Z,136.25
2018-06-17T09:33:13.901Z,135.88
2018-06-17T09:35:44.666Z,136.70
2018-06-17T09:38:15.669Z,135.70
2018-06-17T09:40:46.542Z,133.82
2018-06-17T09:43:17.349Z,134.75
2018-06-17T09:45:48.240Z,135.82
2018-06-17T09:48:19.149Z,135.60
2018-06-17T09:50:52.739Z,136.50
2018-06-17T09:53:23.769Z,132.97
2018-06-17T09:55:54.761Z,131.72
2018-06-17T09:58:25.783Z,134.47
2018-06-17T10:00:56.680Z,131.55
2018-06-17T10:03:27.641Z,131.67
2018-06-17T10:05:58.550Z,136.10
2018-06-17T10:08:29.648Z,132.67
2018-06-17T10:11:02.659Z,137.97
2018-06-17T10:13:37.180Z,137.15
2018-06-17T10:16:08.386Z,134.40
2018-06-17T10:18:39.502Z,139.45
2018-06-17T10:21:10.895Z,136.05
2018-06-17T10:23:42.104Z,135.55
2018-06-17T10:26:13.113Z,138.52
2018-06-17T10:28:44.392Z,139.12
2018-06-17T10:31:15.469Z,139.28
2018-06-17T10:33:47.089Z,136.37
2018-06-17T10:36:18.187Z,139.90
2018-06-17T10:38:49.481Z,136.00
2018-06-17T10:41:20.422Z,141.57
2018-06-17T10:43:51.384Z,135.85
2018-06-17T10:46:22.315Z,131.80
2018-06-17T10:48:53.591Z,137.18
2018-06-17T10:51:24.527Z,137.40
2018-06-17T10:53:55.578Z,139.62
2018-06-17T10:56:27.742Z,134.82
2018-06-17T10:58:58.727Z,131.65
2018-06-17T11:01:29.648Z,139.97
2018-06-17T11:04:00.797Z,137.20
2018-06-17T11:06:31.870Z,135.20
2018-06-17T11:09:03.217Z,135.88
2018-06-17T11:11:34.403Z,136.75
2018-06-17T11:14:05.333Z,133.37
2018-06-17T11:16:36.718Z,139.22
2018-06-17T11:19:07.867Z,137.57
2018-06-17T11:21:39.017Z,143.57
2018-06-17T11:24:09.978Z,138.60
2018-06-17T11:26:41.095Z,135.50
2018-06-17T11:29:12.164Z,136.43
2018-06-17T11:31:49.001Z,129.65
2018-06-17T11:34:19.949Z,135.18
2018-06-17T11:36:51.026Z,134.97
2018-06-17T11:39:22.130Z,126.62
2018-06-17T11:41:54.241Z,131.35
2018-06-17T11:44:25.326Z,127.47
2018-06-17T11:46:56.783Z,127.32
2018-06-17T11:49:27.853Z,127.00
2018-06-17T11:51:58.965Z,128.35
2018-06-17T11:54:30.155Z,133.03
2018-06-17T11:57:01.354Z,132.10
2018-06-17T11:59:32.493Z,133.55
2018-06-17T12:02:03.559Z,134.63
2018-06-17T12:04:34.553Z,134.45
2018-06-17T12:07:05.825Z,131.35
2018-06-17T12:09:36.746Z,127.12
2018-06-17T12:12:07.880Z,135.20
2018-06-17T12:14:38.856Z,138.12
2018-06-17T12:17:10.022Z,136.82
2018-06-17T12:19:41.133Z,135.95
2018-06-17T12:22:12.507Z,126.33
2018-06-17T12:24:43.592Z,130.90
2018-06-17T12:27:14.681Z,131.87
2018-06-17T12:29:45.708Z,134.07
2018-06-17T12:32:16.733Z,130.32
2018-06-17T12:34:47.827Z,132.75
2018-06-17T12:37:19.009Z,132.85
2018-06-17T12:39:50.074Z,129.35
2018-06-17T12:42:21.130Z,129.10
2018-06-17T12:44:52.189Z,128.10
2018-06-17T12:47:23.178Z,129.87
2018-06-17T12:49:54.433Z,135.45
2018-06-17T12:52:25.455Z,126.07
2018-06-17T12:54:56.494Z,132.43
2018-06-17T12:57:28.471Z,129.82
2018-06-17T12:59:59.501Z,131.95
2018-06-17T13:02:30.455Z,136.22
2018-06-17T13:05:01.619Z,132.05
2018-06-17T13:07:32.598Z,139.18
2018-06-17T13:10:03.911Z,133.07
2018-06-17T13:12:34.984Z,132.00
2018-06-17T13:15:05.979Z,131.12
2018-06-17T13:17:37.117Z,131.32
2018-06-17T13:20:08.147Z,126.62
2018-06-17T13:22:39.171Z,134.52
2018-06-17T13:25:10.536Z,128.50
2018-06-17T13:27:41.689Z,132.43
2018-06-17T13:30:13.010Z,127.20
2018-06-17T13:32:44.155Z,133.30
2018-06-17T13:35:17.965Z,130.35
2018-06-17T13:37:49.002Z,130.85
2018-06-17T13:40:20.071Z,132.72
2018-06-17T13:42:51.184Z,132.60
2018-06-17T13:45:22.700Z,139.57
2018-06-17T13:47:53.631Z,131.05
2018-06-17T13:50:24.799Z,128.78
2018-06-17T13:52:57.164Z,131.78
2018-06-17T13:55:28.354Z,128.35
2018-06-17T13:57:59.405Z,128.42
2018-06-17T14:00:30.465Z,126.87
2018-06-17T14:03:01.558Z,131.47
2018-06-17T14:05:32.684Z,128.78
2018-06-17T14:08:04.441Z,131.90
2018-06-17T14:10:35.542Z,141.15
2018-06-17T14:13:06.866Z,141.12
2018-06-17T14:15:37.894Z,129.05
2018-06-17T14:18:08.876Z,127.75
2018-06-17T14:20:39.953Z,128.18
2018-06-17T14:23:10.992Z,124.07
2018-06-17T14:25:42.103Z,130.27
2018-06-17T14:28:13.127Z,130.20
2018-06-17T14:30:44.231Z,133.30
2018-06-17T14:33:15.995Z,131.67
2018-06-17T14:35:47.043Z,132.25
2018-06-17T14:38:18.312Z,134.52
2018-06-17T14:40:54.404Z,125.82
2018-06-17T14:43:30.806Z,129.60
2018-06-17T14:46:06.709Z,130.12
2018-06-17T14:48:42.785Z,129.38
2018-06-17T14:51:18.676Z,130.05
2018-06-17T14:53:49.744Z,126.75
2018-06-17T14:56:20.910Z,130.18
2018-06-17T14:58:52.205Z,127.62
2018-06-17T15:01:23.125Z,126.65
2018-06-17T15:03:54.204Z,129.78
2018-06-17T15:06:25.128Z,129.87
2018-06-17T15:08:56.294Z,131.52
2018-06-17T15:11:27.409Z,127.55
2018-06-17T15:13:58.923Z,129.80
2018-06-17T15:16:29.922Z,133.40
2018-06-17T15:19:02.138Z,137.05
2018-06-17T15:21:33.258Z,132.57
2018-06-17T15:24:05.198Z,131.78
2018-06-17T15:26:36.220Z,131.70
2018-06-17T15:29:07.243Z,130.43
2018-06-17T15:31:43.751Z,127.12
2018-06-17T15:34:20.043Z,129.72
2018-06-17T15:36:56.210Z,129.03
2018-06-17T15:39:32.534Z,127.07
2018-06-17T15:42:03.915Z,129.35
2018-06-17T15:44:34.957Z,128.10
2018-06-17T15:47:05.959Z,128.62
2018-06-17T15:49:36.996Z,131.25
2018-06-17T15:52:08.380Z,130.18
2018-06-17T15:54:39.466Z,131.20
2018-06-17T15:57:10.700Z,126.58
2018-06-17T15:59:41.700Z,127.65
2018-06-17T16:02:12.876Z,129.00
2018-06-17T16:04:43.895Z,134.55
2018-06-17T16:07:15.376Z,130.15
2018-06-17T16:09:46.380Z,132.05
2018-06-17T16:12:22.578Z,133.18
2018-06-17T16:14:58.726Z,128.18
2018-06-17T16:17:34.635Z,133.03
2018-06-17T16:20:11.303Z,127.10
2018-06-17T16:22:42.592Z,133.00
2018-06-17T16:25:13.839Z,131.47
2018-06-17T16:27:44.894Z,132.78
2018-06-17T16:30:15.942Z,133.47
2018-06-17T16:32:47.181Z,131.18
2018-06-17T16:35:18.318Z,132.80
2018-06-17T16:37:50.270Z,131.27
2018-06-17T16:40:21.477Z,130.03
2018-06-17T16:42:53.318Z,127.92
2018-06-17T16:45:24.320Z,132.27
2018-06-17T16:47:55.600Z,130.40
2018-06-17T16:50:26.807Z,130.97
2018-06-17T16:53:02.761Z,132.07
2018-06-17T16:55:38.871Z,128.75
2018-06-17T16:58:14.908Z,131.72
2018-06-17T17:00:46.031Z,130.35
2018-06-17T17:03:17.035Z,137.62
2018-06-17T17:05:48.081Z,133.50
2018-06-17T17:08:19.223Z,135.00
2018-06-17T17:10:50.847Z,135.05
2018-06-17T17:13:22.090Z,135.82
2018-06-17T17:15:55.393Z,129.60
2018-06-17T17:18:28.676Z,129.38
2018-06-17T17:21:01.643Z,131.35
2018-06-17T17:23:34.575Z,139.40
2018-06-17T17:26:06.528Z,134.10
2018-06-17T17:28:38.895Z,133.15
2018-06-17T17:31:10.669Z,139.32
2018-06-17T17:33:47.905Z,139.15
2018-06-17T17:36:24.322Z,141.10
2018-06-17T17:39:00.456Z,137.18
2018-06-17T17:41:31.645Z,133.55
2018-06-17T17:44:03.964Z,131.47
2018-06-17T17:46:40.087Z,131.35
2018-06-17T17:49:11.105Z,134.60
2018-06-17T17:51:42.139Z,132.07
2018-06-17T17:54:13.360Z,130.63
2018-06-17T17:56:44.658Z,135.35
2018-06-17T17:59:15.906Z,126.90
2018-06-17T18:01:47.061Z,130.47
2018-06-17T18:04:18.611Z,134.12
2018-06-17T18:06:50.510Z,128.65
2018-06-17T18:09:23.071Z,131.80
2018-06-17T18:11:54.289Z,130.95
2018-06-17T18:14:25.797Z,128.80
2018-06-17T18:16:56.809Z,129.82
2018-06-17T18:19:28.434Z,129.72
2018-06-17T18:21:59.594Z,132.25
2018-06-17T18:24:31.114Z,131.75
2018-06-17T18:27:07.459Z,133.52
2018-06-17T18:29:43.899Z,136.55
2018-06-17T18:32:20.326Z,137.28
2018-06-17T18:34:57.381Z,136.92
2018-06-17T18:37:28.519Z,132.78
2018-06-17T18:39:59.869Z,128.87
2018-06-17T18:42:31.003Z,131.47
2018-06-17T18:45:02.980Z,148.20
2018-06-17T18:47:35.765Z,139.10
2018-06-17T18:50:07.021Z,140.43
2018-06-17T18:52:38.656Z,134.22
2018-06-17T18:55:11.357Z,127.30
2018-06-17T18:57:42.990Z,126.18
2018-06-17T19:00:14.537Z,129.87
2018-06-17T19:02:46.082Z,125.00
2018-06-17T19:05:18.002Z,126.78
2018-06-17T19:07:49.505Z,131.07
2018-06-17T19:10:26.440Z,127.30
2018-06-17T19:13:02.776Z,126.30
2018-06-17T19:15:39.337Z,126.95
2018-06-17T19:18:13.606Z,132.90
2018-06-17T19:20:46.028Z,135.30
2018-06-17T19:23:17.588Z,131.52
2018-06-17T19:25:49.379Z,133.90
2018-06-17T19:28:21.319Z,133.60
2018-06-17T19:30:54.488Z,127.00
2018-06-17T19:33:28.291Z,127.40
2018-06-17T19:35:59.810Z,126.30
2018-06-17T19:38:31.373Z,125.22
2018-06-17T19:41:02.900Z,123.00
2018-06-17T19:43:34.130Z,121.28
2018-06-17T19:46:05.405Z,125.47
2018-06-17T19:48:36.954Z,123.15
2018-06-17T19:51:13.130Z,125.90
2018-06-17T19:54:51.232Z,161.80
2018-06-17T19:57:27.865Z,136.72
2018-06-17T20:00:04.061Z,131.72
2018-06-17T20:02:35.664Z,135.20
2018-06-17T20:05:08.584Z,129.38
2018-06-17T20:07:42.101Z,137.75
2018-06-17T20:10:14.267Z,130.05
2018-06-17T20:12:46.828Z,133.03
2018-06-17T20:15:18.948Z,132.97
2018-06-17T20:17:51.524Z,130.43
2018-06-17T20:20:24.327Z,124.40
2018-06-17T20:22:56.956Z,127.38
2018-06-17T20:25:31.597Z,127.15
2018-06-17T20:28:04.593Z,121.65
2018-06-17T20:30:35.801Z,125.25
2018-06-17T20:33:12.093Z,122.95
2018-06-17T20:35:48.400Z,122.07
2018-06-17T20:38:25.315Z,123.33
2018-06-17T20:41:01.706Z,125.47
2018-06-17T20:43:37.904Z,125.62
2018-06-17T20:46:09.116Z,125.27
2018-06-17T20:48:40.650Z,121.70
2018-06-17T20:51:12.184Z,129.40
2018-06-17T20:53:43.530Z,121.92
2018-06-17T20:56:15.359Z,127.40
2018-06-17T20:58:46.854Z,127.75
2018-06-17T21:01:18.464Z,127.53
2018-06-17T21:03:49.592Z,129.45
2018-06-17T21:06:20.902Z,129.05
2018-06-17T21:08:52.106Z,131.75
2018-06-17T21:11:23.342Z,128.15
2018-06-17T21:13:54.573Z,125.02
2018-06-17T21:16:25.762Z,129.32
2018-06-17T21:19:02.616Z,126.45
2018-06-17T21:21:38.841Z,123.97
2018-06-17T21:24:16.566Z,128.15
2018-06-17T21:26:52.759Z,128.95
2018-06-17T21:29:24.217Z,132.18
2018-06-17T21:31:55.346Z,130.60
2018-06-17T21:34:28.688Z,121.87
2018-06-17T21:37:00.134Z,126.75
2018-06-17T21:39:31.393Z,125.97
2018-06-17T21:42:02.520Z,122.90
2018-06-17T21:44:33.797Z,119.15
2018-06-17T21:47:05.043Z,119.45
2018-06-17T21:49:36.731Z,120.17
2018-06-17T21:52:08.361Z,118.22
2018-06-17T21:54:39.813Z,125.00
2018-06-17T21:57:11.185Z,126.25
2018-06-17T21:59:42.553Z,124.80
2018-06-17T22:02:13.830Z,129.00
2018-06-17T22:04:45.669Z,133.18
2018-06-17T22:07:17.570Z,126.38
2018-06-17T22:09:54.660Z,125.07
2018-06-17T22:12:31.148Z,127.35
2018-06-17T22:15:08.132Z,131.78
2018-06-17T22:17:44.219Z,128.12
2018-06-17T22:20:15.516Z,127.10
2018-06-17T22:22:46.835Z,118.95
2018-06-17T22:25:19.073Z,118.90
2018-06-17T22:27:50.289Z,114.92
2018-06-17T22:30:21.722Z,119.42
2018-06-17T22:32:53.085Z,119.90
2018-06-17T22:35:24.155Z,125.15
2018-06-17T22:37:55.507Z,123.67
2018-06-17T22:40:26.697Z,124.22
2018-06-17T22:42:57.813Z,125.22
2018-06-17T22:45:29.175Z,121.00
2018-06-17T22:48:00.887Z,125.12
2018-06-17T22:50:32.234Z,126.02
2018-06-17T22:53:13.812Z,121.50
2018-06-17T22:55:45.269Z,127.62
2018-06-17T22:58:21.678Z,122.30
2018-06-17T23:00:59.312Z,128.90
2018-06-17T23:03:36.298Z,121.05
2018-06-17T23:06:12.931Z,116.85
2018-06-17T23:09:51.750Z,125.87
2018-06-17T23:12:23.024Z,120.90
2018-06-17T23:14:54.193Z,127.15
2018-06-17T23:17:26.285Z,129.35
2018-06-17T23:19:57.555Z,130.90
2018-06-17T23:22:29.408Z,129.42
2018-06-17T23:25:00.692Z,128.30
2018-06-17T23:27:31.772Z,127.27
2018-06-17T23:30:02.892Z,124.65
2018-06-17T23:32:34.833Z,122.65
2018-06-17T23:35:06.035Z,122.15
2018-06-17T23:37:38.323Z,122.62
2018-06-17T23:40:09.577Z,121.40
2018-06-17T23:42:41.050Z,123.60
2018-06-17T23:45:12.148Z,122.28
2018-06-17T23:47:48.953Z,124.25
2018-06-17T23:50:24.996Z,121.60
2018-06-17T23:53:01.307Z,122.72
2018-06-17T23:55:37.589Z,123.95
2018-06-17T23:58:09.142Z,119.80
